Columbus, Ohio
Traffic Map
Current Weather Conditions
Columbus, Ohio
Few Clouds
Few Clouds
72°
Feels Like: 72°
Wind Chill: 72° Ceiling: Unl
Heat Index: 72° Visibility: 9mi
Dew Point: 70° Wind: 3mph
Humidity: 93% Direction: 130° (SE)
Pressure: 30.12in Gusts: 0mph
Raw Report DataKCMH 210851Z 13003KT 9SM FEW065 22/21 A3012 RMK AO2 SLP192 T02220211 58001
Traffic Incident Summary
Active as of:
Severity:
Category:
InformationThere was an issue retrieving the traffic information for this location. Please try a different location or try again shortly.
Advertisements